createdAt,value
2022-08-07T00:00:24.295Z,64.50
2022-08-07T00:02:53.533Z,64.50
2022-08-07T00:05:21.057Z,64.50
2022-08-07T00:07:58.261Z,64.40
2022-08-07T00:10:30.727Z,64.40
2022-08-07T00:13:09.872Z,64.70
2022-08-07T00:15:51.244Z,64.80
2022-08-07T00:18:23.120Z,64.80
2022-08-07T00:20:52.537Z,64.80
2022-08-07T00:23:21.170Z,64.80
2022-08-07T00:25:52.075Z,64.90
2022-08-07T00:28:33.309Z,65.00
2022-08-07T00:31:05.982Z,64.80
2022-08-07T00:33:34.525Z,65.00
2022-08-07T00:36:02.099Z,65.00
2022-08-07T00:38:31.047Z,64.90
2022-08-07T00:40:59.196Z,65.10
2022-08-07T00:44:00.726Z,65.40
2022-08-07T00:46:13.110Z,65.40
2022-08-07T00:48:41.977Z,65.30
2022-08-07T00:51:10.077Z,65.20
2022-08-07T00:53:38.945Z,65.50
2022-08-07T00:56:17.234Z,65.70
2022-08-07T00:58:46.722Z,65.60
2022-08-07T01:01:15.112Z,65.70
2022-08-07T01:03:57.276Z,65.70
2022-08-07T01:06:28.859Z,65.80
2022-08-07T01:08:58.659Z,65.90
2022-08-07T01:12:24.119Z,66.00
2022-08-07T01:14:28.568Z,65.90
2022-08-07T01:16:56.599Z,66.00
2022-08-07T01:19:25.714Z,66.10
2022-08-07T01:21:55.430Z,66.20
2022-08-07T01:24:23.532Z,66.30
2022-08-07T01:26:52.772Z,66.50
2022-08-07T01:29:23.478Z,66.70
2022-08-07T01:31:55.761Z,66.70
2022-08-07T01:34:31.066Z,66.70
2022-08-07T01:36:58.540Z,66.60
2022-08-07T01:39:40.522Z,66.60
2022-08-07T01:42:37.993Z,66.60
2022-08-07T01:45:02.523Z,66.70
2022-08-07T01:48:19.605Z,66.70
2022-08-07T01:50:16.984Z,66.70
2022-08-07T01:52:58.704Z,66.80
2022-08-07T01:55:34.330Z,66.80
2022-08-07T01:58:29.250Z,66.80
2022-08-07T02:01:09.953Z,66.70
2022-08-07T02:03:58.099Z,66.80
2022-08-07T02:06:32.058Z,67.10
2022-08-07T02:09:04.318Z,67.20
2022-08-07T02:12:03.287Z,67.30
2022-08-07T02:14:35.659Z,67.30
2022-08-07T02:17:04.115Z,67.10
2022-08-07T02:20:04.237Z,67.20
2022-08-07T02:22:25.887Z,67.50
2022-08-07T02:24:54.007Z,67.60
2022-08-07T02:27:23.335Z,67.40
2022-08-07T02:29:54.503Z,67.60
2022-08-07T02:32:23.548Z,67.50
2022-08-07T02:34:58.664Z,67.40
2022-08-07T02:37:34.169Z,67.30
2022-08-07T02:40:29.724Z,67.70
2022-08-07T02:42:52.807Z,67.80
2022-08-07T02:46:00.505Z,67.90
2022-08-07T02:48:10.251Z,67.80
2022-08-07T02:50:44.859Z,68.00
2022-08-07T02:53:18.058Z,67.90
2022-08-07T02:56:03.309Z,67.90
2022-08-07T02:58:34.282Z,67.80
2022-08-07T03:01:03.079Z,68.00
2022-08-07T03:03:50.231Z,68.10
2022-08-07T03:06:25.488Z,67.90
2022-08-07T03:08:59.832Z,67.90
2022-08-07T03:11:28.214Z,68.00
2022-08-07T03:13:57.607Z,68.10
2022-08-07T03:16:29.398Z,68.40
2022-08-07T03:19:00.927Z,68.30
2022-08-07T03:21:28.551Z,68.30
2022-08-07T03:24:18.234Z,68.30
2022-08-07T03:26:58.763Z,68.20
2022-08-07T03:29:37.394Z,68.10
2022-08-07T03:32:08.447Z,68.30
2022-08-07T03:34:47.437Z,68.40
2022-08-07T03:37:32.576Z,68.50
2022-08-07T03:40:15.672Z,68.40
2022-08-07T03:42:43.826Z,68.30
2022-08-07T03:45:11.834Z,68.30
2022-08-07T03:47:44.998Z,68.50
2022-08-07T03:50:15.293Z,68.50
2022-08-07T03:52:49.489Z,68.40
2022-08-07T03:55:17.173Z,68.50
2022-08-07T03:58:34.691Z,68.80
2022-08-07T04:00:36.401Z,68.70
2022-08-07T04:03:04.801Z,68.80
2022-08-07T04:05:39.322Z,68.70
2022-08-07T04:08:12.056Z,68.70
2022-08-07T04:10:42.871Z,68.70
2022-08-07T04:13:23.020Z,69.00
2022-08-07T04:15:55.004Z,69.10
2022-08-07T04:18:56.589Z,69.20
2022-08-07T04:21:08.846Z,69.20
2022-08-07T04:23:43.830Z,68.90
2022-08-07T04:26:23.520Z,69.10
2022-08-07T04:28:55.137Z,69.20
2022-08-07T04:31:38.469Z,70.20
2022-08-07T04:34:17.103Z,69.40
2022-08-07T04:36:50.876Z,69.50
2022-08-07T04:39:21.874Z,69.60
2022-08-07T04:41:52.663Z,69.50
2022-08-07T04:44:20.782Z,69.30
2022-08-07T04:47:08.811Z,69.30
2022-08-07T04:50:03.940Z,69.20
2022-08-07T04:52:33.809Z,69.30
2022-08-07T04:58:12.099Z,69.60
2022-08-07T05:01:53.076Z,69.60
2022-08-07T05:04:50.383Z,69.70
2022-08-07T05:07:36.547Z,69.70
2022-08-07T05:10:13.857Z,69.90
2022-08-07T05:12:53.571Z,70.00
2022-08-07T05:15:26.590Z,69.80
2022-08-07T05:18:08.572Z,68.10
2022-08-07T05:20:48.070Z,66.10
2022-08-07T05:23:38.214Z,65.70
2022-08-07T05:26:18.836Z,64.00
2022-08-07T05:28:53.631Z,63.20
2022-08-07T05:31:34.933Z,62.80
2022-08-07T05:34:05.725Z,62.70
2022-08-07T05:36:40.214Z,62.80
2022-08-07T05:40:13.595Z,63.00
2022-08-07T05:42:01.566Z,63.20
2022-08-07T05:44:34.208Z,63.80
2022-08-07T05:47:01.696Z,64.00
2022-08-07T05:49:49.383Z,64.10
2022-08-07T05:52:20.626Z,64.30
2022-08-07T05:55:05.412Z,64.20
2022-08-07T05:57:41.970Z,64.20
2022-08-07T06:00:15.975Z,64.20
2022-08-07T06:02:47.840Z,64.30
2022-08-07T06:05:15.658Z,64.00
2022-08-07T06:08:14.537Z,64.00
2022-08-07T06:10:31.239Z,63.80
2022-08-07T06:12:59.778Z,63.90
2022-08-07T06:15:39.081Z,63.70
2022-08-07T06:18:12.143Z,63.50
2022-08-07T06:20:50.421Z,63.40
2022-08-07T06:23:46.465Z,63.30
2022-08-07T06:26:16.644Z,63.20
2022-08-07T06:28:56.831Z,62.80
2022-08-07T06:31:38.448Z,61.80
2022-08-07T06:34:13.089Z,60.70
2022-08-07T06:36:40.074Z,60.60
2022-08-07T06:40:17.434Z,60.40
2022-08-07T06:42:11.717Z,59.70
2022-08-07T06:44:39.901Z,59.00
2022-08-07T06:47:12.318Z,58.00
2022-08-07T06:49:51.549Z,58.50
2022-08-07T06:52:31.369Z,57.90
2022-08-07T06:55:34.450Z,58.00
2022-08-07T06:57:59.491Z,55.70
2022-08-07T07:00:31.053Z,56.30
2022-08-07T07:03:00.846Z,56.10
2022-08-07T07:06:04.860Z,55.60
2022-08-07T07:08:18.475Z,55.00
2022-08-07T07:10:56.991Z,54.80
2022-08-07T07:13:57.384Z,55.00
2022-08-07T07:16:34.047Z,54.40
2022-08-07T07:19:54.787Z,53.90
2022-08-07T07:22:04.983Z,53.20
2022-08-07T07:25:02.597Z,53.70
2022-08-07T07:27:35.862Z,53.70
2022-08-07T07:30:37.779Z,52.90
2022-08-07T07:33:06.073Z,53.70
2022-08-07T07:35:54.267Z,52.90
2022-08-07T07:38:27.482Z,53.00
2022-08-07T07:41:04.285Z,53.20
2022-08-07T07:43:48.097Z,53.40
2022-08-07T07:46:53.378Z,53.60
2022-08-07T07:50:34.581Z,53.30
2022-08-07T07:51:59.882Z,52.60
2022-08-07T07:54:29.407Z,52.50
2022-08-07T07:56:58.301Z,52.50
2022-08-07T07:59:52.252Z,52.00
2022-08-07T08:02:34.273Z,52.00
2022-08-07T08:05:11.488Z,51.90
2022-08-07T08:07:59.690Z,52.10
2022-08-07T08:10:35.505Z,52.10
2022-08-07T08:13:07.353Z,51.80
2022-08-07T08:15:57.973Z,51.10
2022-08-07T08:18:29.501Z,50.40
2022-08-07T08:21:00.238Z,49.10
2022-08-07T08:23:49.733Z,49.80
2022-08-07T08:26:37.700Z,50.10
2022-08-07T08:29:06.480Z,50.10
2022-08-07T08:32:16.843Z,48.70
2022-08-07T08:34:28.997Z,46.90
2022-08-07T08:36:58.378Z,48.20
2022-08-07T08:39:39.532Z,48.00
2022-08-07T08:42:25.993Z,48.10
2022-08-07T08:45:05.099Z,48.50
2022-08-07T08:47:52.449Z,48.50
2022-08-07T08:50:39.130Z,46.80
2022-08-07T08:53:19.186Z,47.30
2022-08-07T08:55:58.486Z,47.10
2022-08-07T08:58:47.615Z,43.30
2022-08-07T09:01:20.248Z,44.50
2022-08-07T09:04:13.478Z,45.20
2022-08-07T09:06:55.587Z,44.90
2022-08-07T09:09:41.679Z,44.70
2022-08-07T09:12:30.961Z,45.00
2022-08-07T09:16:25.379Z,45.00
2022-08-07T09:18:22.503Z,44.50
2022-08-07T09:21:57.739Z,44.60
2022-08-07T09:24:58.447Z,44.70
2022-08-07T09:28:00.782Z,44.40
2022-08-07T09:30:54.838Z,43.10
2022-08-07T09:33:58.958Z,43.10
2022-08-07T09:36:37.217Z,42.80
2022-08-07T09:39:52.596Z,43.10
2022-08-07T09:42:50.378Z,42.40
2022-08-07T09:47:25.419Z,42.70
2022-08-07T09:48:29.772Z,42.50
2022-08-07T09:52:10.296Z,42.20
2022-08-07T09:54:35.266Z,41.60
2022-08-07T09:57:12.917Z,41.00
2022-08-07T10:00:01.514Z,41.60
2022-08-07T10:02:55.639Z,40.40
2022-08-07T10:05:59.687Z,40.00
2022-08-07T10:08:44.165Z,41.10
2022-08-07T10:12:01.991Z,39.60
2022-08-07T10:14:30.492Z,40.00
2022-08-07T10:18:01.704Z,39.60
2022-08-07T10:20:51.110Z,38.40
2022-08-07T10:24:05.347Z,38.50
2022-08-07T10:26:58.343Z,39.10
2022-08-07T10:30:04.821Z,39.40
2022-08-07T10:32:53.022Z,39.20
2022-08-07T10:35:55.159Z,38.90
2022-08-07T10:38:49.957Z,40.80
2022-08-07T10:42:21.407Z,39.20
2022-08-07T10:45:03.033Z,38.90
2022-08-07T10:48:07.336Z,39.00
2022-08-07T10:51:16.604Z,39.30
2022-08-07T10:54:07.911Z,39.60
2022-08-07T10:56:46.049Z,39.00
2022-08-07T10:59:37.237Z,39.60
2022-08-07T11:02:33.317Z,39.60
2022-08-07T11:05:18.975Z,39.10
2022-08-07T11:08:29.160Z,38.60
2022-08-07T11:11:08.899Z,37.90
2022-08-07T11:14:45.086Z,36.80
2022-08-07T11:16:41.611Z,37.50
2022-08-07T11:19:27.515Z,37.20
2022-08-07T11:22:27.404Z,37.10
2022-08-07T11:25:19.788Z,37.90
2022-08-07T11:28:07.351Z,37.00
2022-08-07T11:30:53.074Z,36.90
2022-08-07T11:33:54.066Z,36.60
2022-08-07T11:36:50.176Z,36.20
2022-08-07T11:39:59.157Z,35.90
2022-08-07T11:42:59.085Z,36.00
2022-08-07T11:45:50.156Z,36.00
2022-08-07T11:48:53.973Z,34.00
2022-08-07T11:51:41.684Z,35.10
2022-08-07T11:54:56.997Z,35.20
2022-08-07T11:57:59.551Z,35.60
2022-08-07T12:00:28.290Z,35.30
2022-08-07T12:03:41.403Z,34.80
2022-08-07T12:06:37.604Z,34.00
2022-08-07T12:09:16.251Z,33.70
2022-08-07T12:12:11.994Z,34.20
2022-08-07T12:15:00.470Z,34.20
2022-08-07T12:17:58.556Z,34.30
2022-08-07T12:20:36.366Z,33.70
2022-08-07T12:23:37.393Z,33.90
2022-08-07T12:26:41.957Z,34.40
2022-08-07T12:29:38.831Z,34.20
2022-08-07T12:32:34.945Z,34.70
2022-08-07T12:35:09.307Z,35.00
2022-08-07T12:38:09.333Z,35.60
2022-08-07T12:40:47.728Z,35.30
2022-08-07T12:44:01.756Z,35.50
2022-08-07T12:46:16.026Z,35.30
2022-08-07T12:48:58.084Z,35.30
2022-08-07T12:51:46.667Z,35.30
2022-08-07T12:54:38.953Z,34.90
2022-08-07T12:57:19.753Z,34.90
2022-08-07T12:59:55.544Z,35.10
2022-08-07T13:03:09.764Z,35.30
2022-08-07T13:06:04.674Z,35.70
2022-08-07T13:09:12.706Z,35.10
2022-08-07T13:12:31.197Z,34.90
2022-08-07T13:15:23.745Z,35.10
2022-08-07T13:18:26.096Z,33.90
2022-08-07T13:21:12.957Z,34.90
2022-08-07T13:24:01.301Z,34.60
2022-08-07T13:26:46.557Z,33.40
2022-08-07T13:29:13.442Z,33.30
2022-08-07T13:32:31.030Z,33.80
2022-08-07T13:34:59.378Z,33.10
2022-08-07T13:37:55.314Z,32.50
2022-08-07T13:40:36.155Z,33.10
2022-08-07T13:43:13.309Z,33.10
2022-08-07T13:46:12.195Z,33.30
2022-08-07T13:48:38.774Z,32.90
2022-08-07T13:51:28.446Z,32.10
2022-08-07T13:54:00.874Z,32.30
2022-08-07T13:56:36.084Z,31.90
2022-08-07T13:59:15.708Z,31.90
2022-08-07T14:02:04.375Z,32.20
2022-08-07T14:04:38.894Z,32.90
2022-08-07T14:07:18.433Z,33.20
2022-08-07T14:10:02.928Z,33.70
2022-08-07T14:12:54.789Z,33.90
2022-08-07T14:15:39.408Z,34.40
2022-08-07T14:18:28.463Z,34.30
2022-08-07T14:21:20.856Z,34.70
2022-08-07T14:24:19.446Z,34.20
2022-08-07T14:26:57.554Z,34.30
2022-08-07T14:30:06.589Z,34.40
2022-08-07T14:32:20.567Z,34.30
2022-08-07T14:34:52.526Z,34.00
2022-08-07T14:37:23.705Z,33.90
2022-08-07T14:40:16.418Z,33.70
2022-08-07T14:43:00.820Z,34.30
2022-08-07T14:45:55.443Z,34.10
2022-08-07T14:48:27.377Z,34.10
2022-08-07T14:50:58.242Z,34.00
2022-08-07T14:56:30.099Z,34.30
2022-08-07T14:59:02.067Z,32.80
2022-08-07T15:01:50.844Z,32.40
2022-08-07T15:04:21.800Z,32.30
2022-08-07T15:06:52.609Z,32.30
2022-08-07T15:12:35.326Z,32.60
2022-08-07T15:15:21.233Z,32.90
2022-08-07T15:17:58.103Z,33.10
2022-08-07T15:20:54.700Z,33.10
2022-08-07T15:26:22.136Z,33.10
2022-08-07T15:28:59.551Z,33.60
2022-08-07T15:38:17.754Z,33.80
2022-08-07T15:40:34.210Z,34.20
2022-08-07T15:46:12.769Z,34.30
2022-08-07T15:49:11.894Z,34.00
2022-08-07T15:54:30.901Z,34.90
2022-08-07T15:57:04.943Z,35.00
2022-08-07T15:59:39.722Z,35.20
2022-08-07T16:02:27.284Z,35.60
2022-08-07T16:05:15.352Z,35.60
2022-08-07T16:08:32.377Z,35.70
2022-08-07T16:10:36.664Z,35.90
2022-08-07T16:13:59.077Z,36.10
2022-08-07T16:17:14.994Z,36.40
2022-08-07T16:19:59.692Z,36.00
2022-08-07T16:22:54.865Z,36.10
2022-08-07T16:25:54.630Z,36.30
2022-08-07T16:30:06.825Z,36.70
2022-08-07T16:31:51.845Z,36.60
2022-08-07T16:34:48.472Z,37.00
2022-08-07T16:38:04.656Z,37.10
2022-08-07T16:40:56.921Z,37.10
2022-08-07T16:44:04.056Z,37.00
2022-08-07T16:47:12.382Z,37.10
2022-08-07T16:50:35.649Z,37.10
2022-08-07T16:53:55.510Z,37.10
2022-08-07T16:56:32.649Z,37.30
2022-08-07T16:59:22.454Z,37.70
2022-08-07T17:02:02.867Z,38.00
2022-08-07T17:04:51.099Z,37.70
2022-08-07T17:07:51.487Z,37.70
2022-08-07T17:10:54.698Z,37.80
2022-08-07T17:13:41.220Z,38.00
2022-08-07T17:16:43.655Z,37.60
2022-08-07T17:20:01.780Z,37.70
2022-08-07T17:22:37.645Z,38.00
2022-08-07T17:25:18.470Z,38.30
2022-08-07T17:27:55.937Z,38.40
2022-08-07T17:30:28.532Z,38.70
2022-08-07T17:34:09.022Z,38.70
2022-08-07T17:36:20.775Z,38.70
2022-08-07T17:39:15.562Z,39.50
2022-08-07T17:42:04.235Z,39.50
2022-08-07T17:44:45.368Z,39.80
2022-08-07T17:47:42.436Z,39.80
2022-08-07T17:50:19.648Z,40.30
2022-08-07T17:52:58.979Z,40.30
2022-08-07T17:56:06.428Z,40.50
2022-08-07T17:58:50.236Z,40.60
2022-08-07T18:01:24.904Z,40.80
2022-08-07T18:04:31.216Z,41.00
2022-08-07T18:07:24.429Z,41.10
2022-08-07T18:10:06.504Z,41.50
2022-08-07T18:12:53.375Z,41.70
2022-08-07T18:15:40.518Z,41.70
2022-08-07T18:18:45.627Z,42.00
2022-08-07T18:21:42.238Z,42.20
2022-08-07T18:24:34.031Z,42.40
2022-08-07T18:27:39.056Z,42.50
2022-08-07T18:30:32.739Z,43.30
2022-08-07T18:33:15.263Z,43.40
2022-08-07T18:36:32.954Z,43.90
2022-08-07T18:40:06.667Z,43.80
2022-08-07T18:42:12.775Z,44.50
2022-08-07T18:45:40.041Z,44.40
2022-08-07T18:48:07.148Z,44.70
2022-08-07T18:50:47.913Z,44.90
2022-08-07T18:53:21.937Z,45.40
2022-08-07T18:56:30.795Z,45.40
2022-08-07T18:58:58.550Z,45.60
2022-08-07T19:02:18.264Z,46.00
2022-08-07T19:04:28.096Z,46.10
2022-08-07T19:07:08.365Z,46.20
2022-08-07T19:09:55.811Z,46.50
2022-08-07T19:12:49.033Z,46.70
2022-08-07T19:16:04.497Z,47.10
2022-08-07T19:18:34.850Z,48.30
2022-08-07T19:21:44.176Z,47.60
2022-08-07T19:24:44.705Z,47.70
2022-08-07T19:28:29.539Z,48.30
2022-08-07T19:31:04.540Z,48.40
2022-08-07T19:33:01.468Z,48.50
2022-08-07T19:35:50.164Z,48.80
2022-08-07T19:38:19.583Z,48.90
2022-08-07T19:40:51.912Z,49.00
2022-08-07T19:43:43.181Z,49.30
2022-08-07T19:46:10.782Z,49.20
2022-08-07T19:48:42.741Z,49.60
2022-08-07T19:51:19.615Z,49.70
2022-08-07T19:54:44.159Z,49.90
2022-08-07T19:58:03.046Z,50.30
2022-08-07T19:59:41.569Z,50.80
2022-08-07T20:02:19.775Z,51.10
2022-08-07T20:04:53.176Z,51.40
2022-08-07T20:07:47.171Z,51.70
2022-08-07T20:10:35.219Z,51.80
2022-08-07T20:13:23.951Z,52.00
2022-08-07T20:15:57.824Z,52.20
2022-08-07T20:18:32.768Z,52.50
2022-08-07T20:21:21.988Z,52.70
2022-08-07T20:24:00.900Z,52.80
2022-08-07T20:26:38.961Z,53.20
2022-08-07T20:29:16.995Z,53.40
2022-08-07T20:32:03.974Z,53.60
2022-08-07T20:34:50.051Z,53.90
2022-08-07T20:37:36.910Z,53.90
2022-08-07T20:40:32.120Z,54.20
2022-08-07T20:42:57.842Z,54.40
2022-08-07T20:45:33.093Z,54.50
2022-08-07T20:48:28.963Z,55.00
2022-08-07T20:51:09.559Z,55.40
2022-08-07T20:54:03.569Z,55.30
2022-08-07T20:56:30.531Z,55.30
2022-08-07T20:59:05.999Z,55.50
2022-08-07T21:01:58.585Z,55.70
2022-08-07T21:04:29.257Z,55.80
2022-08-07T21:06:59.316Z,56.10
2022-08-07T21:09:51.865Z,56.30
2022-08-07T21:12:29.002Z,56.60
2022-08-07T21:14:58.573Z,56.80
2022-08-07T21:18:03.403Z,56.90
2022-08-07T21:20:26.656Z,57.10
2022-08-07T21:22:58.371Z,57.30
2022-08-07T21:26:03.541Z,57.50
2022-08-07T21:29:18.499Z,57.20
2022-08-07T21:32:47.152Z,57.50
2022-08-07T21:35:01.264Z,58.20
2022-08-07T21:37:58.008Z,58.20
2022-08-07T21:40:49.994Z,58.90
2022-08-07T21:43:36.649Z,58.60
2022-08-07T21:46:32.176Z,58.70
2022-08-07T21:49:03.599Z,58.90
2022-08-07T21:51:51.241Z,59.00
2022-08-07T21:54:37.976Z,59.30
2022-08-07T21:57:04.601Z,59.30
2022-08-07T22:00:04.424Z,59.70
2022-08-07T22:02:54.768Z,60.10
2022-08-07T22:05:45.489Z,59.80
2022-08-07T22:08:13.281Z,60.10
2022-08-07T22:10:42.334Z,60.40
2022-08-07T22:13:16.787Z,60.60
2022-08-07T22:16:38.799Z,60.70
2022-08-07T22:19:03.153Z,60.80
2022-08-07T22:22:01.729Z,61.10
2022-08-07T22:24:54.608Z,61.20
2022-08-07T22:28:07.450Z,61.20
2022-08-07T22:30:31.736Z,61.30
2022-08-07T22:33:15.036Z,61.70
2022-08-07T22:35:54.568Z,61.50
2022-08-07T22:38:47.866Z,61.50
2022-08-07T22:42:02.413Z,61.60
2022-08-07T22:44:18.570Z,61.70
2022-08-07T22:47:08.697Z,61.70
2022-08-07T22:50:32.997Z,61.90
2022-08-07T22:54:04.977Z,61.90
2022-08-07T22:56:28.805Z,62.20
2022-08-07T22:59:25.808Z,62.40
2022-08-07T23:02:18.303Z,62.60
2022-08-07T23:06:10.188Z,62.60
2022-08-07T23:08:30.073Z,62.90
2022-08-07T23:11:35.107Z,62.80
2022-08-07T23:14:30.448Z,62.80
2022-08-07T23:17:28.140Z,63.10
2022-08-07T23:20:40.474Z,63.30
2022-08-07T23:24:06.554Z,63.40
2022-08-07T23:26:54.853Z,63.70
2022-08-07T23:29:43.398Z,63.50
2022-08-07T23:34:23.539Z,63.60
2022-08-07T23:35:16.689Z,63.90
2022-08-07T23:38:19.136Z,64.20
2022-08-07T23:41:09.182Z,64.20
2022-08-07T23:44:05.645Z,64.30
2022-08-07T23:46:47.931Z,64.40
2022-08-07T23:49:50.117Z,64.40
2022-08-07T23:53:01.513Z,64.50
2022-08-07T23:55:52.354Z,64.50
2022-08-07T23:58:42.371Z,64.50
